Time;durP1;ratioP1;P1;durP2;ratioP2;P2;SDS_P1;SDS_P2;PMS_P1;PMS_P2;Temp;Humidity;BMP_temperature;BMP_pressure;BME280_temperature;BME280_humidity;BME280_pressure;Samples;Min_cycle;Max_cycle;Signal;HPM_P1;HPM_P2
2021/06/19 00:02:03;;;;;;;19.23;17.83;;;26.10;91.00;;;;;;3545781;40;20572;-67
2021/06/19 00:04:32;;;;;;;19.43;18.10;;;26.10;91.10;;;;;;3545702;40;20490;-67
2021/06/19 00:07:02;;;;;;;19.73;18.43;;;26.10;91.10;;;;;;3545765;40;20501;-67
2021/06/19 00:09:30;;;;;;;20.33;19.03;;;26.10;91.10;;;;;;3545462;40;20485;-67
2021/06/19 00:11:58;;;;;;;20.17;18.77;;;26.10;91.10;;;;;;3545452;40;20498;-67
2021/06/19 00:14:26;;;;;;;19.60;18.27;;;26.10;91.10;;;;;;3546732;40;20502;-67
2021/06/19 00:16:55;;;;;;;19.90;18.50;;;26.10;91.10;;;;;;3537257;40;20507;-67
2021/06/19 00:19:23;;;;;;;19.60;18.30;;;26.10;91.20;;;;;;3545876;40;20500;-67
2021/06/19 00:21:53;;;;;;;18.97;17.77;;;26.10;91.20;;;;;;3545616;40;20485;-67
2021/06/19 00:24:22;;;;;;;19.67;18.17;;;26.10;91.20;;;;;;3545332;40;20485;-67
2021/06/19 00:26:52;;;;;;;19.17;18.07;;;26.10;91.20;;;;;;3545614;40;20474;-67
2021/06/19 00:29:20;;;;;;;20.23;18.90;;;26.10;91.20;;;;;;3543432;40;20868;-67
2021/06/19 00:31:49;;;;;;;20.87;19.17;;;26.10;91.20;;;;;;3546197;40;20497;-67
2021/06/19 00:34:17;;;;;;;18.83;17.63;;;26.10;91.20;;;;;;3537647;40;20485;-67
2021/06/19 00:36:46;;;;;;;18.67;17.47;;;26.10;91.30;;;;;;3546926;40;20496;-67
2021/06/19 00:39:15;;;;;;;20.23;18.93;;;26.10;91.40;;;;;;3537392;40;20489;-67
2021/06/19 00:41:43;;;;;;;19.00;17.83;;;26.10;91.40;;;;;;3536976;40;20903;-67
2021/06/19 00:44:17;;;;;;;20.57;19.20;;;26.10;91.30;;;;;;3545315;40;20497;-67
2021/06/19 00:46:45;;;;;;;20.70;19.50;;;26.20;91.30;;;;;;3546411;40;20484;-67
2021/06/19 00:49:12;;;;;;;20.87;19.40;;;26.10;91.30;;;;;;3546511;40;21064;-67
2021/06/19 00:51:41;;;;;;;19.70;18.40;;;26.10;91.20;;;;;;3545392;40;20497;-67
2021/06/19 00:54:08;;;;;;;20.23;18.97;;;26.10;91.20;;;;;;3546428;40;20476;-67
2021/06/19 00:56:39;;;;;;;19.73;18.53;;;26.20;91.30;;;;;;3546335;40;20477;-67
2021/06/19 00:59:08;;;;;;;20.07;18.87;;;26.10;91.50;;;;;;3546521;40;20935;-67
2021/06/19 01:01:37;;;;;;;19.83;18.43;;;26.10;91.80;;;;;;3545364;40;20572;-67
2021/06/19 01:04:07;;;;;;;19.57;18.10;;;26.10;91.50;;;;;;3536009;40;20568;-67
2021/06/19 01:06:36;;;;;;;20.27;18.90;;;26.10;91.50;;;;;;3546219;40;20482;-67
2021/06/19 01:09:07;;;;;;;19.20;18.00;;;26.10;91.50;;;;;;3546508;40;20483;-67
2021/06/19 01:11:35;;;;;;;19.20;17.90;;;26.10;91.50;;;;;;3546423;40;20476;-67
2021/06/19 01:14:05;;;;;;;19.93;18.73;;;26.10;91.60;;;;;;3545841;40;20489;-67
2021/06/19 01:16:33;;;;;;;19.73;18.37;;;26.10;91.60;;;;;;3546549;40;20477;-67
2021/06/19 01:19:02;;;;;;;18.97;17.80;;;26.10;91.60;;;;;;3546288;40;20557;-67
2021/06/19 01:21:31;;;;;;;21.23;19.23;;;26.10;91.60;;;;;;3546439;40;20482;-67
2021/06/19 01:23:59;;;;;;;19.83;18.43;;;26.10;91.60;;;;;;3545379;40;20478;-67
2021/06/19 01:26:31;;;;;;;19.90;18.50;;;26.10;91.60;;;;;;3546713;40;20492;-67
2021/06/19 01:29:00;;;;;;;20.57;19.23;;;26.10;91.60;;;;;;3546114;40;20487;-67
2021/06/19 01:31:29;;;;;;;21.30;19.83;;;26.10;91.60;;;;;;3546256;40;20564;-67
2021/06/19 01:33:57;;;;;;;20.00;18.53;;;26.10;91.70;;;;;;3546291;40;20477;-67
2021/06/19 01:36:26;;;;;;;19.97;18.40;;;26.10;91.60;;;;;;3547168;40;20915;-67
2021/06/19 01:38:55;;;;;;;19.37;18.17;;;26.10;91.70;;;;;;3545485;40;20490;-67
2021/06/19 01:41:26;;;;;;;19.87;18.70;;;26.10;91.80;;;;;;3542673;40;20484;-67
2021/06/19 01:44:00;;;;;;;20.47;18.93;;;26.10;91.70;;;;;;3545941;40;20476;-67
2021/06/19 01:46:27;;;;;;;21.30;19.60;;;26.10;91.70;;;;;;3546556;40;20504;-67
2021/06/19 01:48:54;;;;;;;19.67;18.20;;;26.20;91.70;;;;;;3544227;40;20521;-67
2021/06/19 01:51:24;;;;;;;19.17;18.00;;;26.10;91.70;;;;;;3544026;40;20487;-67
2021/06/19 01:53:53;;;;;;;21.57;20.00;;;26.10;91.70;;;;;;3545389;40;20473;-67
2021/06/19 01:56:23;;;;;;;20.50;19.00;;;26.10;91.70;;;;;;3546153;40;20494;-67
2021/06/19 01:58:51;;;;;;;20.27;18.97;;;26.20;91.70;;;;;;3546418;40;20781;-67
2021/06/19 02:01:21;;;;;;;19.80;18.60;;;26.10;91.80;;;;;;3546007;40;20484;-67
2021/06/19 02:03:51;;;;;;;18.90;17.60;;;26.10;91.80;;;;;;3546050;40;20482;-67
2021/06/19 02:06:20;;;;;;;20.10;18.80;;;26.10;91.90;;;;;;3546074;40;20477;-67
2021/06/19 02:09:07;;;;;;;19.37;18.07;;;26.10;92.00;;;;;;3544742;40;20893;-67
2021/06/19 02:11:37;;;;;;;19.17;17.77;;;26.10;92.00;;;;;;3546241;40;20533;-67
2021/06/19 02:14:05;;;;;;;19.70;18.30;;;26.10;92.00;;;;;;3545379;40;20487;-67
2021/06/19 02:16:35;;;;;;;20.40;18.90;;;26.10;92.00;;;;;;3545823;40;20550;-67
2021/06/19 02:19:02;;;;;;;20.23;18.17;;;26.10;92.00;;;;;;3546258;40;20471;-67
2021/06/19 02:21:31;;;;;;;18.17;17.07;;;26.10;92.10;;;;;;3546818;40;20846;-67
2021/06/19 02:23:59;;;;;;;18.97;17.70;;;26.10;92.10;;;;;;3545801;40;20489;-67
2021/06/19 02:26:29;;;;;;;19.07;17.80;;;26.10;92.20;;;;;;3545774;40;20590;-67
2021/06/19 02:28:56;;;;;;;18.20;17.10;;;26.10;92.20;;;;;;3545076;40;20492;-67
2021/06/19 02:31:25;;;;;;;20.20;18.70;;;26.10;92.30;;;;;;3545285;40;20497;-67
2021/06/19 02:33:57;;;;;;;19.33;17.90;;;26.10;92.30;;;;;;3546584;40;20498;-67
2021/06/19 02:36:25;;;;;;;18.97;17.47;;;26.10;92.40;;;;;;3537149;40;20571;-67
2021/06/19 02:38:53;;;;;;;20.20;18.57;;;26.10;92.50;;;;;;3545778;40;20494;-67
2021/06/19 02:41:22;;;;;;;20.20;18.50;;;26.10;92.60;;;;;;3544295;40;20490;-67
2021/06/19 02:43:49;;;;;;;18.13;16.83;;;26.10;92.60;;;;;;3545958;40;20474;-67
2021/06/19 02:46:18;;;;;;;19.37;17.70;;;26.10;92.70;;;;;;3545575;40;20893;-67
2021/06/19 02:48:45;;;;;;;20.10;18.80;;;26.10;92.70;;;;;;3544942;40;20490;-67
2021/06/19 02:51:15;;;;;;;19.60;18.20;;;26.10;92.70;;;;;;3544297;40;20498;-67
2021/06/19 02:53:42;;;;;;;19.47;17.90;;;26.10;92.80;;;;;;3544080;40;20473;-67
2021/06/19 02:56:10;;;;;;;20.33;19.00;;;26.10;92.80;;;;;;3546098;40;20482;-67
2021/06/19 02:58:38;;;;;;;19.10;17.70;;;26.10;92.90;;;;;;3546208;40;20962;-67
2021/06/19 03:01:08;;;;;;;18.57;17.27;;;26.10;92.90;;;;;;3545620;40;20503;-67
2021/06/19 03:03:36;;;;;;;19.77;18.23;;;26.10;93.00;;;;;;3545813;40;20875;-67
2021/06/19 03:06:05;;;;;;;19.20;17.97;;;26.10;93.00;;;;;;3545157;40;20489;-67
2021/06/19 03:08:35;;;;;;;20.13;18.47;;;26.10;93.00;;;;;;3545160;40;20474;-67
2021/06/19 03:11:04;;;;;;;19.10;17.73;;;26.10;93.10;;;;;;3545186;40;20498;-67
2021/06/19 03:13:32;;;;;;;20.10;18.70;;;26.10;93.10;;;;;;3545683;40;20485;-67
2021/06/19 03:16:01;;;;;;;17.90;16.70;;;26.10;93.20;;;;;;3546103;40;20808;-67
2021/06/19 03:18:29;;;;;;;19.60;18.10;;;26.10;93.20;;;;;;3545255;40;20723;-67
2021/06/19 03:20:57;;;;;;;19.10;17.80;;;26.10;93.20;;;;;;3545034;40;20507;-67
2021/06/19 03:23:25;;;;;;;18.90;17.60;;;26.10;93.20;;;;;;3545322;40;20470;-67
2021/06/19 03:25:54;;;;;;;19.30;18.10;;;26.10;93.20;;;;;;3545605;40;20493;-67
2021/06/19 03:28:23;;;;;;;21.60;20.20;;;26.10;93.30;;;;;;3546101;40;20490;-67
2021/06/19 03:30:52;;;;;;;21.13;19.40;;;26.10;93.30;;;;;;3547038;40;20485;-67
2021/06/19 03:33:20;;;;;;;22.53;20.97;;;26.10;93.30;;;;;;3547439;40;20480;-67
2021/06/19 03:35:49;;;;;;;21.67;20.23;;;26.10;93.30;;;;;;3547462;40;21151;-67
2021/06/19 03:38:19;;;;;;;22.77;21.13;;;26.10;93.30;;;;;;3547218;40;20483;-67
2021/06/19 03:40:47;;;;;;;22.00;20.40;;;26.10;93.40;;;;;;3547561;40;20718;-67
2021/06/19 03:43:16;;;;;;;22.77;20.97;;;26.10;93.80;;;;;;3547790;40;20490;-67
2021/06/19 03:45:43;;;;;;;21.67;20.20;;;26.00;93.40;;;;;;3547770;40;20491;-67
2021/06/19 03:48:12;;;;;;;22.20;20.27;;;26.10;93.50;;;;;;3547077;40;20477;-67
2021/06/19 03:50:40;;;;;;;22.93;21.43;;;26.10;93.50;;;;;;3547615;40;20485;-67
2021/06/19 03:53:09;;;;;;;21.27;19.67;;;26.10;93.50;;;;;;3547187;40;20485;-67
2021/06/19 03:55:36;;;;;;;20.33;18.83;;;26.00;93.50;;;;;;3547260;40;21078;-67
2021/06/19 03:58:04;;;;;;;20.47;18.97;;;26.00;93.60;;;;;;3546604;40;20479;-67
2021/06/19 04:00:34;;;;;;;19.97;18.47;;;26.00;93.60;;;;;;3546601;40;20482;-67
2021/06/19 04:03:02;;;;;;;20.83;19.27;;;26.00;93.60;;;;;;3544550;40;20489;-67
2021/06/19 04:05:30;;;;;;;20.23;18.83;;;26.00;93.70;;;;;;3546438;40;20541;-67
2021/06/19 04:07:58;;;;;;;21.10;19.03;;;26.00;93.70;;;;;;3538275;40;20475;-67
2021/06/19 04:10:26;;;;;;;19.77;18.50;;;26.00;93.70;;;;;;3547291;40;20473;-67
2021/06/19 04:12:54;;;;;;;21.77;19.90;;;26.00;93.70;;;;;;3548011;40;21170;-67
2021/06/19 04:15:22;;;;;;;19.47;18.03;;;26.00;93.70;;;;;;3547263;40;20876;-67
2021/06/19 04:17:52;;;;;;;19.03;17.63;;;26.00;93.80;;;;;;3546356;40;20485;-67
2021/06/19 04:20:21;;;;;;;19.40;18.10;;;26.00;93.80;;;;;;3546407;40;20482;-67
2021/06/19 04:22:48;;;;;;;19.90;18.40;;;26.00;93.80;;;;;;3545919;40;20561;-67
2021/06/19 04:25:18;;;;;;;19.13;17.83;;;26.00;93.80;;;;;;3545289;40;20884;-67
2021/06/19 04:27:48;;;;;;;18.70;17.43;;;26.00;93.80;;;;;;3535682;40;20497;-67
2021/06/19 04:30:18;;;;;;;19.80;18.23;;;26.00;93.80;;;;;;3546288;40;20490;-67
2021/06/19 04:32:45;;;;;;;20.50;19.20;;;26.00;93.80;;;;;;3546719;40;21248;-67
2021/06/19 04:35:16;;;;;;;19.80;18.60;;;26.00;93.80;;;;;;3546455;40;20489;-67
2021/06/19 04:37:44;;;;;;;19.87;18.40;;;26.00;93.90;;;;;;3544597;40;20509;-67
2021/06/19 04:40:17;;;;;;;21.50;19.80;;;26.00;93.90;;;;;;3546667;40;20480;-67
2021/06/19 04:42:54;;;;;;;21.50;19.90;;;26.00;93.90;;;;;;3546394;40;20478;-67
2021/06/19 04:45:22;;;;;;;20.30;19.00;;;26.00;93.90;;;;;;3546250;40;20576;-67
2021/06/19 04:47:50;;;;;;;20.13;18.57;;;26.00;93.80;;;;;;3545874;40;20966;-67
2021/06/19 04:50:21;;;;;;;20.27;18.77;;;26.00;94.20;;;;;;3545327;40;20487;-67
2021/06/19 04:52:49;;;;;;;20.10;18.43;;;26.00;93.90;;;;;;3544954;40;20516;-67
2021/06/19 04:55:19;;;;;;;21.83;19.97;;;26.00;93.90;;;;;;3537325;40;20534;-67
2021/06/19 04:57:51;;;;;;;20.90;19.10;;;26.00;93.90;;;;;;3544968;40;20486;-67
2021/06/19 05:00:20;;;;;;;21.20;19.43;;;26.00;94.00;;;;;;3545477;40;21052;-67
2021/06/19 05:02:49;;;;;;;20.30;18.90;;;26.00;94.00;;;;;;3543380;40;20522;-67
2021/06/19 05:05:16;;;;;;;20.00;18.60;;;26.00;94.00;;;;;;3544938;40;20875;-67
2021/06/19 05:07:45;;;;;;;19.20;17.87;;;26.00;94.00;;;;;;3543641;40;20482;-67
2021/06/19 05:10:14;;;;;;;17.87;16.57;;;26.00;94.00;;;;;;3536245;40;20477;-67
2021/06/19 05:12:43;;;;;;;19.07;17.57;;;26.00;94.00;;;;;;3545248;40;20489;-67
2021/06/19 05:15:17;;;;;;;19.20;17.60;;;26.00;94.00;;;;;;3545833;40;20477;-67
2021/06/19 05:17:45;;;;;;;18.53;16.93;;;26.00;94.00;;;;;;3545431;40;20485;-67
2021/06/19 05:20:14;;;;;;;18.50;17.30;;;26.00;94.00;;;;;;3545566;40;20533;-67
2021/06/19 05:22:41;;;;;;;18.60;17.10;;;26.00;94.00;;;;;;3545650;40;20482;-67
2021/06/19 05:25:13;;;;;;;18.00;16.90;;;26.00;94.00;;;;;;3546166;40;20474;-67
2021/06/19 05:27:42;;;;;;;18.37;17.20;;;26.00;94.10;;;;;;3545403;40;20481;-67
2021/06/19 05:30:15;;;;;;;19.40;17.93;;;26.10;94.10;;;;;;3540760;40;20489;-67
2021/06/19 05:32:44;;;;;;;18.80;17.30;;;26.00;94.10;;;;;;3544579;40;20481;-67
2021/06/19 05:35:12;;;;;;;18.53;17.33;;;26.00;94.10;;;;;;3545275;40;20474;-67
2021/06/19 05:37:41;;;;;;;19.17;17.67;;;26.00;94.10;;;;;;3545284;40;20619;-67
2021/06/19 05:40:11;;;;;;;18.00;16.70;;;26.10;94.20;;;;;;3545839;40;20485;-67
2021/06/19 05:42:40;;;;;;;18.80;17.50;;;26.00;94.20;;;;;;3545539;40;20494;-67
2021/06/19 05:45:09;;;;;;;19.13;17.83;;;26.00;94.30;;;;;;3545632;40;20481;-67
2021/06/19 05:47:37;;;;;;;18.50;16.97;;;26.00;94.20;;;;;;3543996;40;20745;-67
2021/06/19 05:50:05;;;;;;;18.57;17.10;;;26.00;94.20;;;;;;3543490;40;20487;-67
2021/06/19 05:52:34;;;;;;;17.20;16.10;;;26.00;94.20;;;;;;3543641;40;20567;-67
2021/06/19 05:55:02;;;;;;;19.33;17.90;;;26.00;94.20;;;;;;3544322;40;20533;-67
2021/06/19 05:57:32;;;;;;;19.30;17.80;;;26.00;94.20;;;;;;3544195;40;20485;-67
2021/06/19 06:00:00;;;;;;;19.43;17.73;;;26.00;94.20;;;;;;3543288;40;20843;-66
2021/06/19 06:02:28;;;;;;;18.20;16.50;;;26.00;94.20;;;;;;3543189;40;20493;-67
2021/06/19 06:04:56;;;;;;;18.10;16.80;;;26.00;94.20;;;;;;3545453;40;20839;-67
2021/06/19 06:07:25;;;;;;;17.30;15.60;;;26.00;94.20;;;;;;3544059;40;20485;-67
2021/06/19 06:09:53;;;;;;;16.30;14.97;;;26.00;94.50;;;;;;3545892;40;20518;-67
2021/06/19 06:12:21;;;;;;;17.10;15.60;;;26.00;94.20;;;;;;3544258;40;20488;-67
2021/06/19 06:14:50;;;;;;;17.03;15.57;;;26.00;94.20;;;;;;3544911;40;20479;-67
2021/06/19 06:17:18;;;;;;;16.67;15.67;;;26.00;94.20;;;;;;3543242;40;20482;-67
2021/06/19 06:19:46;;;;;;;16.13;15.03;;;26.00;94.20;;;;;;3544003;40;20477;-67
2021/06/19 06:22:14;;;;;;;16.47;15.27;;;26.00;94.20;;;;;;3543750;40;20480;-67
2021/06/19 06:24:42;;;;;;;15.70;14.17;;;26.10;94.20;;;;;;3544227;40;20546;-67
2021/06/19 06:27:10;;;;;;;16.23;15.13;;;26.00;94.20;;;;;;3540519;40;20484;-67
2021/06/19 06:29:40;;;;;;;16.97;15.57;;;26.10;94.20;;;;;;3542250;40;20983;-67
2021/06/19 06:32:09;;;;;;;16.70;15.30;;;26.00;94.10;;;;;;3543833;40;20493;-67
2021/06/19 06:34:38;;;;;;;18.00;16.60;;;26.10;94.20;;;;;;3543322;40;20468;-67
2021/06/19 06:37:07;;;;;;;16.57;15.20;;;26.10;94.10;;;;;;3542328;40;20485;-67
2021/06/19 06:39:35;;;;;;;17.33;15.67;;;26.10;94.20;;;;;;3534380;40;20489;-67
2021/06/19 06:42:04;;;;;;;17.43;15.70;;;26.10;94.20;;;;;;3544195;40;20518;-67
2021/06/19 06:44:32;;;;;;;17.87;16.37;;;26.10;94.20;;;;;;3543555;40;20947;-67
2021/06/19 06:46:59;;;;;;;16.60;15.50;;;26.10;94.10;;;;;;3542827;40;20501;-67
2021/06/19 06:49:29;;;;;;;16.60;15.57;;;26.10;94.20;;;;;;3534439;40;20478;-67
2021/06/19 06:51:57;;;;;;;17.70;16.50;;;26.10;94.20;;;;;;3542592;40;20576;-67
2021/06/19 06:54:25;;;;;;;17.40;16.00;;;26.10;94.10;;;;;;3543017;40;20882;-67
2021/06/19 06:56:53;;;;;;;16.83;15.53;;;26.10;94.10;;;;;;3541424;40;20482;-67
2021/06/19 06:59:21;;;;;;;17.93;16.47;;;26.10;94.10;;;;;;3542730;40;20497;-67
2021/06/19 07:01:49;;;;;;;19.30;17.40;;;26.10;94.10;;;;;;3543506;40;20510;-67
2021/06/19 07:04:17;;;;;;;18.00;16.50;;;26.10;94.10;;;;;;3543962;40;20474;-67
2021/06/19 07:06:46;;;;;;;17.70;16.47;;;26.10;94.10;;;;;;3542976;40;20496;-65
2021/06/19 07:09:14;;;;;;;19.53;17.97;;;26.10;94.10;;;;;;3543522;40;20756;-65
2021/06/19 07:11:42;;;;;;;18.43;16.93;;;26.10;94.40;;;;;;3543492;40;20490;-65
2021/06/19 07:14:11;;;;;;;17.97;16.17;;;26.10;94.10;;;;;;3542999;40;20670;-65
2021/06/19 07:16:38;;;;;;;19.07;17.57;;;26.10;94.10;;;;;;3543250;40;20478;-65
2021/06/19 07:19:06;;;;;;;19.03;17.57;;;26.10;94.10;;;;;;3543842;40;20502;-65
2021/06/19 07:21:34;;;;;;;18.87;17.23;;;26.10;94.10;;;;;;3543290;40;20503;-65
2021/06/19 07:24:04;;;;;;;19.07;17.20;;;26.10;94.10;;;;;;3543804;40;20480;-65
2021/06/19 07:26:32;;;;;;;19.90;18.50;;;26.10;94.10;;;;;;3545446;40;20489;-65
2021/06/19 07:29:00;;;;;;;20.00;17.60;;;26.10;94.10;;;;;;3543535;40;20568;-65
2021/06/19 07:31:28;;;;;;;18.80;17.30;;;26.10;94.10;;;;;;3544847;40;20901;-65
2021/06/19 07:33:56;;;;;;;20.50;18.67;;;26.10;94.10;;;;;;3542580;40;20485;-65
2021/06/19 07:36:24;;;;;;;20.70;18.80;;;26.10;94.10;;;;;;3543242;40;20478;-65
2021/06/19 07:38:52;;;;;;;22.10;19.90;;;26.20;94.20;;;;;;3542645;40;20493;-65
2021/06/19 07:41:21;;;;;;;19.93;18.03;;;26.20;94.20;;;;;;3543226;40;20500;-65
2021/06/19 07:43:49;;;;;;;19.23;17.70;;;26.10;94.20;;;;;;3533265;40;21093;-65
2021/06/19 07:46:17;;;;;;;19.30;17.70;;;26.10;94.20;;;;;;3542524;40;20498;-65
2021/06/19 07:48:45;;;;;;;19.17;17.90;;;26.10;94.20;;;;;;3541739;40;20501;-65
2021/06/19 07:51:13;;;;;;;21.00;18.80;;;26.20;94.30;;;;;;3542148;40;20497;-65
2021/06/19 07:53:41;;;;;;;21.00;19.10;;;26.20;94.30;;;;;;3542898;40;20485;-65
2021/06/19 07:56:10;;;;;;;19.63;17.97;;;26.20;94.40;;;;;;3542486;40;20761;-65
2021/06/19 07:58:39;;;;;;;21.00;18.77;;;26.10;94.40;;;;;;3542395;40;20892;-65
2021/06/19 08:01:10;;;;;;;20.37;18.70;;;26.20;94.40;;;;;;3542048;40;20500;-65
2021/06/19 08:03:38;;;;;;;20.30;18.53;;;26.20;94.50;;;;;;3542815;40;20818;-65
2021/06/19 08:06:07;;;;;;;19.57;17.97;;;26.20;94.40;;;;;;3542677;40;20473;-66
2021/06/19 08:08:36;;;;;;;21.30;19.10;;;26.20;94.40;;;;;;3543626;40;20478;-65
2021/06/19 08:11:04;;;;;;;19.57;17.87;;;26.20;94.40;;;;;;3542495;40;20493;-66
2021/06/19 08:13:32;;;;;;;21.33;19.20;;;26.20;94.40;;;;;;3542092;40;20520;-66
2021/06/19 08:16:04;;;;;;;21.80;19.83;;;26.20;94.50;;;;;;3542573;40;20872;-66
2021/06/19 08:18:33;;;;;;;19.90;18.20;;;26.20;94.50;;;;;;3543902;40;20543;-66
2021/06/19 08:21:01;;;;;;;21.03;19.10;;;26.20;94.80;;;;;;3542886;40;20587;-66
2021/06/19 08:23:29;;;;;;;20.23;18.63;;;26.20;94.50;;;;;;3540650;40;20490;-66
2021/06/19 08:25:57;;;;;;;20.90;19.10;;;26.20;94.50;;;;;;3531072;40;20919;-66
2021/06/19 08:28:25;;;;;;;21.43;19.73;;;26.20;94.40;;;;;;3533274;40;20478;-66
2021/06/19 08:30:53;;;;;;;21.83;19.63;;;26.20;94.50;;;;;;3532215;40;20491;-66
2021/06/19 08:33:22;;;;;;;21.00;19.20;;;26.20;94.50;;;;;;3532377;40;20503;-66
2021/06/19 08:35:50;;;;;;;20.60;19.00;;;26.20;94.40;;;;;;3525102;40;20503;-66
2021/06/19 08:38:18;;;;;;;21.47;19.60;;;26.20;94.40;;;;;;3540949;40;20495;-65
2021/06/19 08:40:46;;;;;;;21.27;19.47;;;26.20;94.40;;;;;;3541226;40;20474;-65
2021/06/19 08:43:14;;;;;;;21.90;20.13;;;26.20;94.40;;;;;;3540886;40;20899;-65
2021/06/19 08:45:43;;;;;;;21.17;19.40;;;26.20;94.40;;;;;;3541710;40;21180;-65
2021/06/19 08:48:11;;;;;;;19.20;17.67;;;26.20;94.30;;;;;;3541702;40;20469;-65
2021/06/19 08:50:42;;;;;;;20.43;18.77;;;26.20;94.30;;;;;;3540899;40;20504;-65
2021/06/19 08:53:10;;;;;;;22.57;20.47;;;26.20;94.30;;;;;;3540270;40;20489;-65
2021/06/19 08:55:38;;;;;;;21.27;19.20;;;26.20;94.30;;;;;;3540916;40;20488;-65
2021/06/19 08:58:05;;;;;;;21.37;19.63;;;26.20;94.30;;;;;;3540488;40;20547;-65
2021/06/19 09:00:35;;;;;;;19.87;18.40;;;26.20;94.30;;;;;;3539557;40;20784;-65
2021/06/19 09:03:03;;;;;;;21.67;19.73;;;26.20;94.30;;;;;;3541670;40;20931;-65
2021/06/19 09:05:31;;;;;;;20.57;19.13;;;26.20;94.30;;;;;;3541792;40;20762;-65
2021/06/19 09:08:01;;;;;;;19.70;18.20;;;26.20;94.30;;;;;;3541502;40;20564;-65
2021/06/19 09:10:31;;;;;;;21.97;20.30;;;26.20;94.20;;;;;;3541986;40;20929;-65
2021/06/19 09:13:05;;;;;;;21.87;20.17;;;26.20;94.20;;;;;;3538845;40;20953;-65
2021/06/19 09:15:35;;;;;;;21.30;19.60;;;26.20;94.20;;;;;;3540344;40;20486;-65
2021/06/19 09:18:10;;;;;;;22.73;20.60;;;26.20;94.20;;;;;;3541150;40;20477;-65
2021/06/19 09:20:40;;;;;;;21.67;19.90;;;26.20;94.20;;;;;;3540652;40;20970;-65
2021/06/19 09:23:11;;;;;;;20.57;19.10;;;26.20;94.20;;;;;;3541384;40;20528;-65
2021/06/19 09:25:40;;;;;;;20.40;18.93;;;26.20;94.20;;;;;;3539747;40;20958;-65
2021/06/19 09:28:09;;;;;;;20.20;18.83;;;26.20;94.20;;;;;;3540826;40;20486;-66
2021/06/19 09:30:40;;;;;;;22.20;20.40;;;26.20;94.20;;;;;;3537048;40;20497;-66
2021/06/19 09:33:11;;;;;;;21.50;19.73;;;26.20;94.20;;;;;;3538729;40;20568;-66
2021/06/19 09:35:41;;;;;;;22.50;20.60;;;26.20;94.20;;;;;;3539210;40;20537;-66
2021/06/19 09:38:15;;;;;;;23.33;21.13;;;26.20;94.20;;;;;;3540564;40;20505;-66
2021/06/19 09:40:44;;;;;;;22.07;20.07;;;26.20;94.20;;;;;;3549353;40;20558;-66
2021/06/19 09:43:15;;;;;;;22.03;20.33;;;26.20;94.20;;;;;;3549761;40;20821;-66
2021/06/19 09:45:47;;;;;;;23.57;21.67;;;26.30;94.20;;;;;;3533733;40;20481;-66
2021/06/19 09:48:26;;;;;;;23.57;21.23;;;26.20;94.10;;;;;;3547033;40;20494;-66
2021/06/19 09:51:13;;;;;;;22.27;20.63;;;26.20;94.20;;;;;;3543683;40;20532;-66
2021/06/19 09:53:43;;;;;;;23.70;21.53;;;26.20;94.20;;;;;;3539147;40;20966;-66
2021/06/19 09:56:13;;;;;;;22.50;20.50;;;26.20;94.20;;;;;;3537918;40;20572;-66
2021/06/19 09:58:42;;;;;;;22.30;20.40;;;26.20;94.10;;;;;;3538995;40;20495;-66
2021/06/19 10:01:12;;;;;;;22.30;20.50;;;26.20;94.10;;;;;;3539442;40;20486;-66
2021/06/19 10:03:54;;;;;;;20.83;19.30;;;26.20;94.20;;;;;;3540357;40;20483;-66
2021/06/19 10:06:21;;;;;;;22.27;20.20;;;26.20;94.20;;;;;;3539425;40;20488;-66
2021/06/19 10:08:52;;;;;;;23.77;21.37;;;26.20;94.20;;;;;;3540229;40;20485;-66
2021/06/19 10:11:24;;;;;;;24.77;22.50;;;26.20;94.20;;;;;;3540114;40;20485;-66
2021/06/19 10:13:53;;;;;;;22.23;20.57;;;26.30;94.20;;;;;;3540010;40;20572;-66
2021/06/19 10:16:24;;;;;;;22.83;21.13;;;26.20;94.20;;;;;;3537731;40;20494;-66
2021/06/19 10:18:53;;;;;;;23.37;21.20;;;26.20;94.20;;;;;;3537984;40;20541;-66
2021/06/19 10:21:22;;;;;;;24.73;22.03;;;26.20;94.20;;;;;;3537113;40;20485;-66
2021/06/19 10:23:53;;;;;;;22.20;20.37;;;26.20;94.20;;;;;;3530479;40;20492;-66
2021/06/19 10:26:24;;;;;;;22.20;20.30;;;26.30;94.20;;;;;;3539723;40;20490;-66
2021/06/19 10:28:57;;;;;;;22.80;20.93;;;26.30;94.20;;;;;;3531040;40;20559;-66
2021/06/19 10:31:24;;;;;;;22.73;21.00;;;26.30;94.10;;;;;;3539095;40;20529;-66
2021/06/19 10:33:53;;;;;;;22.60;20.60;;;26.30;94.10;;;;;;3539428;40;20482;-66
2021/06/19 10:36:38;;;;;;;23.13;20.87;;;26.30;94.10;;;;;;3539701;40;20474;-66
2021/06/19 10:39:08;;;;;;;22.10;20.00;;;26.30;94.10;;;;;;3540174;40;20679;-66
2021/06/19 10:41:46;;;;;;;22.33;20.40;;;26.30;94.00;;;;;;3538546;40;20478;-66
2021/06/19 10:45:00;;;;;;;21.73;19.83;;;26.30;94.00;;;;;;3539006;40;20572;-66
2021/06/19 10:47:30;;;;;;;21.70;20.00;;;26.30;93.90;;;;;;3525475;40;20490;-66
2021/06/19 10:50:00;;;;;;;20.67;19.03;;;26.30;93.80;;;;;;3538797;40;20486;-66
2021/06/19 10:52:35;;;;;;;21.23;19.83;;;26.30;93.80;;;;;;3539871;40;20506;-66
2021/06/19 10:55:30;;;;;;;21.97;20.20;;;26.30;93.80;;;;;;3540591;40;20485;-66
2021/06/19 10:58:18;;;;;;;20.50;19.10;;;26.30;93.80;;;;;;3537783;40;20497;-66
2021/06/19 11:00:54;;;;;;;20.37;19.00;;;26.20;93.70;;;;;;3538028;40;20527;-66
2021/06/19 11:03:43;;;;;;;22.37;20.53;;;26.30;93.70;;;;;;3536218;40;20473;-66
2021/06/19 11:06:25;;;;;;;21.73;19.60;;;26.20;93.60;;;;;;3528191;40;20489;-66
2021/06/19 11:09:13;;;;;;;21.83;19.83;;;26.30;93.60;;;;;;3536697;40;21037;-66
2021/06/19 11:11:51;;;;;;;21.90;19.90;;;26.30;93.60;;;;;;3539677;40;20479;-66
2021/06/19 11:14:55;;;;;;;21.23;19.13;;;26.30;93.50;;;;;;3538382;40;20564;-66
2021/06/19 11:17:44;;;;;;;22.07;19.90;;;26.30;93.50;;;;;;3530025;40;21111;-66
2021/06/19 11:20:29;;;;;;;21.27;19.67;;;26.30;93.40;;;;;;3542620;40;20508;-66
2021/06/19 11:22:59;;;;;;;22.03;20.23;;;26.30;93.40;;;;;;3538319;40;20499;-66
2021/06/19 11:25:55;;;;;;;21.57;19.30;;;26.30;93.40;;;;;;3535910;40;20580;-66
2021/06/19 11:28:30;;;;;;;20.97;19.37;;;26.30;93.40;;;;;;3535729;40;20509;-66
2021/06/19 11:31:02;;;;;;;22.20;20.27;;;26.30;93.30;;;;;;3536888;40;20496;-66
2021/06/19 11:33:57;;;;;;;21.30;19.53;;;26.30;93.30;;;;;;3536047;40;20494;-66
2021/06/19 11:36:41;;;;;;;21.50;19.60;;;26.30;93.30;;;;;;3536687;40;20595;-66
2021/06/19 11:39:14;;;;;;;21.07;18.83;;;26.30;93.20;;;;;;3537703;40;21170;-66
2021/06/19 11:41:49;;;;;;;21.20;19.20;;;26.30;93.20;;;;;;3537729;40;20940;-66
2021/06/19 11:44:30;;;;;;;20.67;19.17;;;26.30;93.20;;;;;;3529251;40;20490;-66
2021/06/19 11:47:01;;;;;;;21.90;19.80;;;26.30;93.20;;;;;;3527916;40;20489;-66
2021/06/19 11:49:45;;;;;;;21.10;19.40;;;26.30;93.20;;;;;;3529727;40;20529;-67
2021/06/19 11:52:19;;;;;;;21.00;19.30;;;26.30;93.20;;;;;;3528252;40;20504;-67
2021/06/19 11:54:51;;;;;;;22.50;20.43;;;26.30;93.20;;;;;;3530064;40;20579;-67
2021/06/19 11:57:26;;;;;;;20.67;19.10;;;26.30;93.20;;;;;;3528661;40;21210;-67
2021/06/19 12:00:14;;;;;;;23.43;21.10;;;26.30;93.20;;;;;;3531036;40;20855;-67
2021/06/19 12:02:43;;;;;;;22.53;20.63;;;26.30;93.20;;;;;;3527853;40;20471;-67
2021/06/19 12:05:12;;;;;;;21.27;19.57;;;26.30;93.20;;;;;;3529359;40;20487;-67
2021/06/19 12:07:41;;;;;;;21.63;19.67;;;26.30;93.20;;;;;;3529516;40;20563;-67
2021/06/19 12:10:24;;;;;;;22.10;20.13;;;26.30;93.20;;;;;;3527999;40;20497;-67
2021/06/19 12:13:04;;;;;;;23.10;21.30;;;26.30;93.20;;;;;;3530792;40;20749;-67
2021/06/19 12:15:34;;;;;;;22.37;20.27;;;26.30;93.50;;;;;;3530974;40;20873;-67
2021/06/19 12:18:04;;;;;;;22.47;20.47;;;26.30;93.20;;;;;;3529580;40;20928;-67
2021/06/19 12:20:32;;;;;;;23.93;22.10;;;26.30;93.20;;;;;;3530088;40;20508;-67
2021/06/19 12:23:15;;;;;;;20.80;19.20;;;26.30;93.20;;;;;;3536690;40;20476;-67
2021/06/19 12:25:43;;;;;;;21.60;19.97;;;26.30;93.30;;;;;;3539550;40;20504;-67
2021/06/19 12:28:21;;;;;;;20.97;19.17;;;26.30;93.20;;;;;;3538492;40;20478;-67
2021/06/19 12:30:56;;;;;;;24.47;21.90;;;26.30;93.30;;;;;;3537361;40;20488;-67
2021/06/19 12:33:25;;;;;;;22.03;20.23;;;26.30;93.30;;;;;;3538833;40;20479;-67
2021/06/19 12:35:53;;;;;;;21.93;19.97;;;26.30;93.30;;;;;;3548986;40;20527;-67
2021/06/19 12:38:22;;;;;;;23.40;21.27;;;26.30;93.30;;;;;;3515010;40;20581;-67
2021/06/19 12:40:51;;;;;;;21.87;20.27;;;26.30;93.30;;;;;;3526538;40;20488;-67
2021/06/19 12:43:19;;;;;;;23.77;21.67;;;26.30;93.30;;;;;;3540762;40;20496;-67
2021/06/19 12:45:49;;;;;;;21.73;19.93;;;26.30;93.30;;;;;;3540790;40;20481;-67